Silver Sun — 3FAU2 — position and weather

sailwx.info

Track history (hours):
 
Tides and Currents Weather Stations Pressure Air Temp Water Temp Dewpoint Dewpoint Depression Visibility Wind Speed Wind Dir Waves Ship Positions

Silver Sun

Last reported at 2017-Oct-15 23:01 UTC. Time now 2017-Oct-18 04:08 UTC.
Position N 31°56' W 014°33'.

Length 183 m; draft 7.4 m.

Type: Cargo ship. MMSI: 373207000.

Date/timePositionNaut miles runAvg speedWind from/ knotsBaromVisibWave heightAir tempDewpointWater temp
2017-Oct-15 23:01N 31°56' W 014°33'013.9
2017-Oct-15 23:00N 31°55' W 014°33'713.8
2017-Oct-15 22:30N 31°49' W 014°35'713.9
2017-Oct-15 22:00N 31°42' W 014°37'714.0
2017-Oct-15 21:30N 31°36' W 014°40'713.9
2017-Oct-15 20:58N 31°28' W 014°41'613.7
2017-Oct-15 20:30N 31°22' W 014°43'713.4
2017-Oct-15 20:00N 31°16' W 014°46'713.5
2017-Oct-15 19:30N 31°09' W 014°48'713.6
2017-Oct-15 19:00N 31°03' W 014°50'713.6
2017-Oct-15 18:30N 30°56' W 014°53'713.5
2017-Oct-15 18:00N 30°50' W 014°55'713.8
2017-Oct-15 17:31N 30°43' W 014°57'913.6
2017-Oct-15 16:51N 30°34' W 014°59'513.7
2017-Oct-15 16:30N 30°30' W 015°01'713.9
2017-Oct-15 16:00N 30°23' W 015°03'714.1
2017-Oct-15 15:30N 30°17' W 015°06'714.5
2017-Oct-15 15:00N 30°10' W 015°08'1414.3
2017-Oct-15 14:00N 29°56' W 015°12'714.3
2017-Oct-15 13:30N 29°49' W 015°14'715.0
2017-Oct-15 13:00N 29°42' W 015°17'714.8
2017-Oct-15 12:30N 29°35' W 015°19'815.0
2017-Oct-15 12:00N 29°27' W 015°21'815.1
2017-Oct-15 11:30N 29°20' W 015°24'714.9
2017-Oct-15 11:00N 29°13' W 015°26'714.9
2017-Oct-15 10:30N 29°06' W 015°28'714.8
2017-Oct-15 10:00N 28°59' W 015°31'815.0
2017-Oct-15 09:30N 28°52' W 015°33'815.2
2017-Oct-15 09:00N 28°44' W 015°35'714.9
2017-Oct-15 08:30N 28°38' W 015°39'714.9
2017-Oct-15 08:00N 28°32' W 015°44'714.6
2017-Oct-15 07:30N 28°26' W 015°50'714.4
2017-Oct-15 07:00N 28°20' W 015°55'714.3
2017-Oct-15 06:29N 28°15' W 016°00'714.3
2017-Oct-15 06:00N 28°09' W 016°05'814.6
2017-Oct-15 05:28N 28°04' W 016°11'1114.6
2017-Oct-15 04:45N 27°54' W 016°16'514.8
2017-Oct-15 04:25N 27°49' W 016°18'814.9
2017-Oct-15 03:54N 27°42' W 016°20'  
2017-Oct-11 16:38N 09°29' W 014°34'50 3.0
2017-Oct-11 00:00N 09°31' W 013°43'0 0.0
2017-Oct-10 23:30N 09°31' W 013°43'0 0.0
2017-Oct-10 23:00N 09°31' W 013°43'0 0.0
2017-Oct-10 22:30N 09°31' W 013°43'0 0.0
2017-Oct-10 22:00N 09°31' W 013°43'0 0.0
2017-Oct-10 21:30N 09°31' W 013°43'0 0.0
2017-Oct-10 21:00N 09°31' W 013°43'0 0.0
2017-Oct-10 20:30N 09°31' W 013°43'0 0.0
2017-Oct-10 20:00N 09°31' W 013°43'0 0.0
2017-Oct-10 19:30N 09°31' W 013°43'0 0.0
2017-Oct-10 19:00N 09°31' W 013°43'0 0.0
2017-Oct-10 18:30N 09°31' W 013°43'0 0.0
2017-Oct-10 18:00N 09°31' W 013°43'0 0.0
2017-Oct-10 17:30N 09°31' W 013°43'0 0.0
2017-Oct-10 17:00N 09°31' W 013°43'0 0.0
2017-Oct-10 16:30N 09°31' W 013°43'0 0.0
2017-Oct-10 16:00N 09°31' W 013°43'0 0.0
2017-Oct-10 15:30N 09°31' W 013°43'0 0.0
2017-Oct-10 15:00N 09°31' W 013°43'0 0.0
2017-Oct-10 14:00N 09°31' W 013°43'0 0.0
2017-Oct-10 13:30N 09°31' W 013°43'2 4.4
2017-Oct-10 13:00N 09°29' W 013°44'3 6.0
2017-Oct-10 12:30N 09°26' W 013°43'4 8.7
2017-Oct-10 12:00N 09°22' W 013°44'2 3.4
2017-Oct-10 11:30N 09°21' W 013°46'1 1.0
2017-Oct-10 11:00N 09°21' W 013°45'0 0.7
2017-Oct-10 10:30N 09°21' W 013°45'0 0.5
2017-Oct-10 10:00N 09°21' W 013°45'1 3.0
2017-Oct-10 09:30N 09°22' W 013°43'4 8.0
2017-Oct-10 09:00N 09°26' W 013°42'1 2.4
2017-Oct-10 08:30N 09°26' W 013°44'2 3.6
2017-Oct-10 08:01N 09°24' W 013°44'4 8.8
2017-Oct-10 07:30N 09°20' W 013°44'612.3
2017-Oct-10 07:00N 09°14' W 013°45'714.4
2017-Oct-10 06:29N 09°06' W 013°45'814.6
2017-Oct-10 05:57N 08°59' W 013°46'714.5
2017-Oct-10 05:30N 08°52' W 013°47'  
2017-Oct-07 19:35N 04°09' W 003°11'313.1
2017-Oct-07 19:23N 04°09' W 003°08'613.0
2017-Oct-07 18:57N 04°09' W 003°02'612.9
2017-Oct-07 18:30N 04°09' W 002°56'712.9
2017-Oct-07 17:59N 04°09' W 002°50'612.9
2017-Oct-07 17:29N 04°09' W 002°44'713.1
2017-Oct-07 16:59N 04°09' W 002°37'713.7
2017-Oct-07 16:29N 04°09' W 002°30'713.4
2017-Oct-07 15:59N 04°09' W 002°23'713.5
2017-Oct-07 15:30N 04°09' W 002°17'713.6
2017-Oct-07 14:59N 04°09' W 002°10'813.6
2017-Oct-07 14:24N 04°10' W 002°02'613.6
2017-Oct-07 13:59N 04°10' W 001°56'14712.9
2017-Oct-07 02:31N 05°04' E 000°21'012.8
2017-Oct-07 02:30N 05°04' E 000°22'612.8
2017-Oct-07 02:00N 05°07' E 000°27'  
Track history (hours):
 
Tides and Currents Weather Stations Pressure Air Temp Water Temp Dewpoint Dewpoint Depression Visibility Wind Speed Wind Dir Waves Ship Positions

Silver Sun

Last reported at 2017-Oct-15 23:01 UTC. Time now 2017-Oct-18 04:08 UTC.
Position N 31°56' W 014°33'.

Length 183 m; draft 7.4 m.

Type: Cargo ship. MMSI: 373207000.

Date/timePositionNaut miles runAvg speedWind from/ knotsBaromVisibWave heightAir tempDewpointWater temp
2017-Oct-15 23:01N 31°56' W 014°33'013.9
2017-Oct-15 23:00N 31°55' W 014°33'713.8
2017-Oct-15 22:30N 31°49' W 014°35'713.9
2017-Oct-15 22:00N 31°42' W 014°37'714.0
2017-Oct-15 21:30N 31°36' W 014°40'713.9
2017-Oct-15 20:58N 31°28' W 014°41'613.7
2017-Oct-15 20:30N 31°22' W 014°43'713.4
2017-Oct-15 20:00N 31°16' W 014°46'713.5
2017-Oct-15 19:30N 31°09' W 014°48'713.6
2017-Oct-15 19:00N 31°03' W 014°50'713.6
2017-Oct-15 18:30N 30°56' W 014°53'713.5
2017-Oct-15 18:00N 30°50' W 014°55'713.8
2017-Oct-15 17:31N 30°43' W 014°57'913.6
2017-Oct-15 16:51N 30°34' W 014°59'513.7
2017-Oct-15 16:30N 30°30' W 015°01'713.9
2017-Oct-15 16:00N 30°23' W 015°03'714.1
2017-Oct-15 15:30N 30°17' W 015°06'714.5
2017-Oct-15 15:00N 30°10' W 015°08'1414.3
2017-Oct-15 14:00N 29°56' W 015°12'714.3
2017-Oct-15 13:30N 29°49' W 015°14'715.0
2017-Oct-15 13:00N 29°42' W 015°17'714.8
2017-Oct-15 12:30N 29°35' W 015°19'815.0
2017-Oct-15 12:00N 29°27' W 015°21'815.1
2017-Oct-15 11:30N 29°20' W 015°24'714.9
2017-Oct-15 11:00N 29°13' W 015°26'714.9
2017-Oct-15 10:30N 29°06' W 015°28'714.8
2017-Oct-15 10:00N 28°59' W 015°31'815.0
2017-Oct-15 09:30N 28°52' W 015°33'815.2
2017-Oct-15 09:00N 28°44' W 015°35'714.9
2017-Oct-15 08:30N 28°38' W 015°39'714.9
2017-Oct-15 08:00N 28°32' W 015°44'714.6
2017-Oct-15 07:30N 28°26' W 015°50'714.4
2017-Oct-15 07:00N 28°20' W 015°55'714.3
2017-Oct-15 06:29N 28°15' W 016°00'714.3
2017-Oct-15 06:00N 28°09' W 016°05'814.6
2017-Oct-15 05:28N 28°04' W 016°11'1114.6
2017-Oct-15 04:45N 27°54' W 016°16'514.8
2017-Oct-15 04:25N 27°49' W 016°18'814.9
2017-Oct-15 03:54N 27°42' W 016°20'  
2017-Oct-11 16:38N 09°29' W 014°34'50 3.0
2017-Oct-11 00:00N 09°31' W 013°43'0 0.0
2017-Oct-10 23:30N 09°31' W 013°43'0 0.0
2017-Oct-10 23:00N 09°31' W 013°43'0 0.0
2017-Oct-10 22:30N 09°31' W 013°43'0 0.0
2017-Oct-10 22:00N 09°31' W 013°43'0 0.0
2017-Oct-10 21:30N 09°31' W 013°43'0 0.0
2017-Oct-10 21:00N 09°31' W 013°43'0 0.0
2017-Oct-10 20:30N 09°31' W 013°43'0 0.0
2017-Oct-10 20:00N 09°31' W 013°43'0 0.0
2017-Oct-10 19:30N 09°31' W 013°43'0 0.0
2017-Oct-10 19:00N 09°31' W 013°43'0 0.0
2017-Oct-10 18:30N 09°31' W 013°43'0 0.0
2017-Oct-10 18:00N 09°31' W 013°43'0 0.0
2017-Oct-10 17:30N 09°31' W 013°43'0 0.0
2017-Oct-10 17:00N 09°31' W 013°43'0 0.0
2017-Oct-10 16:30N 09°31' W 013°43'0 0.0
2017-Oct-10 16:00N 09°31' W 013°43'0 0.0
2017-Oct-10 15:30N 09°31' W 013°43'0 0.0
2017-Oct-10 15:00N 09°31' W 013°43'0 0.0
2017-Oct-10 14:00N 09°31' W 013°43'0 0.0
2017-Oct-10 13:30N 09°31' W 013°43'2 4.4
2017-Oct-10 13:00N 09°29' W 013°44'3 6.0
2017-Oct-10 12:30N 09°26' W 013°43'4 8.7
2017-Oct-10 12:00N 09°22' W 013°44'2 3.4
2017-Oct-10 11:30N 09°21' W 013°46'1 1.0
2017-Oct-10 11:00N 09°21' W 013°45'0 0.7
2017-Oct-10 10:30N 09°21' W 013°45'0 0.5
2017-Oct-10 10:00N 09°21' W 013°45'1 3.0
2017-Oct-10 09:30N 09°22' W 013°43'4 8.0
2017-Oct-10 09:00N 09°26' W 013°42'1 2.4
2017-Oct-10 08:30N 09°26' W 013°44'2 3.6
2017-Oct-10 08:01N 09°24' W 013°44'4 8.8
2017-Oct-10 07:30N 09°20' W 013°44'612.3
2017-Oct-10 07:00N 09°14' W 013°45'714.4
2017-Oct-10 06:29N 09°06' W 013°45'814.6
2017-Oct-10 05:57N 08°59' W 013°46'714.5
2017-Oct-10 05:30N 08°52' W 013°47'  
2017-Oct-07 19:35N 04°09' W 003°11'313.1
2017-Oct-07 19:23N 04°09' W 003°08'613.0
2017-Oct-07 18:57N 04°09' W 003°02'612.9
2017-Oct-07 18:30N 04°09' W 002°56'712.9
2017-Oct-07 17:59N 04°09' W 002°50'612.9
2017-Oct-07 17:29N 04°09' W 002°44'713.1
2017-Oct-07 16:59N 04°09' W 002°37'713.7
2017-Oct-07 16:29N 04°09' W 002°30'713.4
2017-Oct-07 15:59N 04°09' W 002°23'713.5
2017-Oct-07 15:30N 04°09' W 002°17'713.6
2017-Oct-07 14:59N 04°09' W 002°10'813.6
2017-Oct-07 14:24N 04°10' W 002°02'613.6
2017-Oct-07 13:59N 04°10' W 001°56'14712.9
2017-Oct-07 02:31N 05°04' E 000°21'012.8
2017-Oct-07 02:30N 05°04' E 000°22'612.8
2017-Oct-07 02:00N 05°07' E 000°27'  

Dump ship's entire track history